createdAt,value
2023-03-25T00:02:25.114Z,2.22
2023-03-25T00:04:54.583Z,2.25
2023-03-25T00:07:23.332Z,2.22
2023-03-25T00:09:51.421Z,2.50
2023-03-25T00:12:19.893Z,2.05
2023-03-25T00:14:54.471Z,2.03
2023-03-25T00:17:26.472Z,2.30
2023-03-25T00:19:55.486Z,2.15
2023-03-25T00:22:24.098Z,2.20
2023-03-25T00:24:52.018Z,2.00
2023-03-25T00:27:20.325Z,2.20
2023-03-25T00:29:48.342Z,1.83
2023-03-25T00:32:17.471Z,1.80
2023-03-25T00:34:48.071Z,2.03
2023-03-25T00:37:18.175Z,2.23
2023-03-25T00:39:46.173Z,1.90
2023-03-25T00:42:17.146Z,2.00
2023-03-25T00:44:45.168Z,1.92
2023-03-25T00:47:18.186Z,2.08
2023-03-25T00:49:47.409Z,2.23
2023-03-25T00:52:15.858Z,2.33
2023-03-25T00:54:45.715Z,2.10
2023-03-25T00:57:13.788Z,2.15
2023-03-25T00:59:41.778Z,2.20
2023-03-25T01:02:10.293Z,1.90
2023-03-25T01:04:41.572Z,2.17
2023-03-25T01:07:12.540Z,1.95
2023-03-25T01:09:41.581Z,1.90
2023-03-25T01:12:09.987Z,1.90
2023-03-25T01:14:37.871Z,2.00
2023-03-25T01:17:05.886Z,1.90
2023-03-25T01:19:33.869Z,1.90
2023-03-25T01:22:01.815Z,1.85
2023-03-25T01:24:31.388Z,2.00
2023-03-25T01:26:59.610Z,1.70
2023-03-25T01:29:29.570Z,1.70
2023-03-25T01:31:58.970Z,1.73
2023-03-25T01:34:27.269Z,1.73
2023-03-25T01:36:56.312Z,1.70
2023-03-25T01:39:24.439Z,1.77
2023-03-25T01:41:55.405Z,1.80
2023-03-25T01:45:01.456Z,1.70
2023-03-25T01:47:30.106Z,1.70
2023-03-25T01:49:58.039Z,1.93
2023-03-25T01:52:29.581Z,1.60
2023-03-25T01:54:59.702Z,1.73
2023-03-25T01:57:31.372Z,1.70
2023-03-25T01:59:59.453Z,1.70
2023-03-25T02:02:34.894Z,1.55
2023-03-25T02:05:10.500Z,1.90
2023-03-25T02:07:42.477Z,1.85
2023-03-25T02:10:12.505Z,1.70
2023-03-25T02:12:42.696Z,1.70
2023-03-25T02:15:11.997Z,1.60
2023-03-25T02:18:11.053Z,1.60
2023-03-25T02:21:08.309Z,1.50
2023-03-25T02:24:08.249Z,1.83
2023-03-25T02:27:14.024Z,1.63
2023-03-25T02:30:21.922Z,1.80
2023-03-25T02:33:13.380Z,1.50
2023-03-25T02:36:00.688Z,1.73
2023-03-25T02:38:40.457Z,1.90
2023-03-25T02:41:14.958Z,1.70
2023-03-25T02:43:46.964Z,2.00
2023-03-25T02:46:18.152Z,1.70
2023-03-25T02:48:54.676Z,2.25
2023-03-25T02:51:26.916Z,2.10
2023-03-25T02:54:01.759Z,2.20
2023-03-25T02:56:32.756Z,2.00
2023-03-25T02:59:01.847Z,2.20
2023-03-25T03:01:29.913Z,2.20
2023-03-25T03:03:57.974Z,2.30
2023-03-25T03:06:26.308Z,2.15
2023-03-25T03:09:16.249Z,2.08
2023-03-25T03:11:51.478Z,2.30
2023-03-25T03:14:31.690Z,1.75
2023-03-25T03:17:08.691Z,1.98
2023-03-25T03:19:41.334Z,1.90
2023-03-25T03:22:20.664Z,1.83
2023-03-25T03:24:53.627Z,1.88
2023-03-25T03:27:33.809Z,2.10
2023-03-25T03:30:07.715Z,2.72
2023-03-25T03:32:43.290Z,2.30
2023-03-25T03:35:17.780Z,1.90
2023-03-25T03:37:52.444Z,1.95
2023-03-25T03:40:25.661Z,2.03
2023-03-25T03:42:57.917Z,2.10
2023-03-25T03:45:30.525Z,1.92
2023-03-25T03:48:01.554Z,2.00
2023-03-25T03:50:32.623Z,2.30
2023-03-25T03:53:06.964Z,2.20
2023-03-25T03:55:40.918Z,2.30
2023-03-25T03:58:15.193Z,2.40
2023-03-25T04:00:50.690Z,2.30
2023-03-25T04:03:24.607Z,2.13
2023-03-25T04:05:58.701Z,2.30
2023-03-25T04:08:30.771Z,1.83
2023-03-25T04:11:08.944Z,1.70
2023-03-25T04:13:40.441Z,1.73
2023-03-25T04:16:09.092Z,1.70
2023-03-25T04:18:37.121Z,1.70
2023-03-25T04:21:05.606Z,1.70
2023-03-25T04:23:34.768Z,1.70
2023-03-25T04:26:04.456Z,1.40
2023-03-25T04:28:32.724Z,1.83
2023-03-25T04:31:07.327Z,1.70
2023-03-25T04:33:35.977Z,1.70
2023-03-25T04:36:03.996Z,1.97
2023-03-25T04:38:31.929Z,1.73
2023-03-25T04:41:00.407Z,1.77
2023-03-25T04:43:29.648Z,1.73
2023-03-25T04:45:57.563Z,1.77
2023-03-25T04:48:29.941Z,2.00
2023-03-25T04:50:59.012Z,1.80
2023-03-25T04:53:27.341Z,1.80
2023-03-25T04:55:55.597Z,1.70
2023-03-25T04:58:23.768Z,1.93
2023-03-25T05:00:53.960Z,1.70
2023-03-25T05:03:24.209Z,1.83
2023-03-25T05:05:52.720Z,1.87
2023-03-25T05:08:22.378Z,2.17
2023-03-25T05:10:50.846Z,1.70
2023-03-25T05:13:18.703Z,1.47
2023-03-25T05:15:46.600Z,1.57
2023-03-25T05:18:17.219Z,1.80
2023-03-25T05:20:50.656Z,1.60
2023-03-25T05:23:18.764Z,1.73
2023-03-25T05:25:47.389Z,1.80
2023-03-25T05:28:15.951Z,1.60
2023-03-25T05:30:45.970Z,1.80
2023-03-25T05:33:17.311Z,2.00
2023-03-25T05:35:45.861Z,2.17
2023-03-25T05:38:18.685Z,1.70
2023-03-25T05:40:47.626Z,1.70
2023-03-25T05:43:16.376Z,1.50
2023-03-25T05:45:46.935Z,2.20
2023-03-25T05:48:16.226Z,1.70
2023-03-25T05:50:44.173Z,1.93
2023-03-25T05:53:13.385Z,2.10
2023-03-25T05:55:41.300Z,2.13
2023-03-25T05:58:09.181Z,2.20
2023-03-25T06:00:55.640Z,1.90
2023-03-25T06:03:26.257Z,2.13
2023-03-25T06:05:54.550Z,1.70
2023-03-25T06:08:26.196Z,2.27
2023-03-25T06:10:58.260Z,2.13
2023-03-25T06:13:26.380Z,1.90
2023-03-25T06:15:56.171Z,1.70
2023-03-25T06:18:25.709Z,2.27
2023-03-25T06:20:57.677Z,1.90
2023-03-25T06:23:26.392Z,2.20
2023-03-25T06:25:54.899Z,1.70
2023-03-25T06:28:23.783Z,2.00
2023-03-25T06:30:51.793Z,2.13
2023-03-25T06:33:43.421Z,2.33
2023-03-25T06:36:11.347Z,2.37
2023-03-25T06:38:39.813Z,2.33
2023-03-25T06:41:11.330Z,2.30
2023-03-25T06:43:39.875Z,2.30
2023-03-25T06:46:08.070Z,2.07
2023-03-25T06:48:54.784Z,2.23
2023-03-25T06:51:24.123Z,2.43
2023-03-25T06:53:52.161Z,2.40
2023-03-25T06:56:20.248Z,2.37
2023-03-25T06:58:48.373Z,1.73
2023-03-25T07:01:17.036Z,2.20
2023-03-25T07:03:45.219Z,2.10
2023-03-25T07:06:18.834Z,2.47
2023-03-25T07:08:48.713Z,3.00
2023-03-25T07:11:20.551Z,2.33
2023-03-25T07:13:48.697Z,2.10
2023-03-25T07:16:16.937Z,2.13
2023-03-25T07:18:45.275Z,2.10
2023-03-25T07:21:13.531Z,2.87
2023-03-25T07:23:41.632Z,2.00
2023-03-25T07:26:11.193Z,2.50
2023-03-25T07:28:40.542Z,2.77
2023-03-25T07:31:09.396Z,2.40
2023-03-25T07:33:38.279Z,2.07
2023-03-25T07:36:07.825Z,2.57
2023-03-25T07:38:36.888Z,2.50
2023-03-25T07:41:07.459Z,2.50
2023-03-25T07:43:36.990Z,2.53
2023-03-25T07:46:27.518Z,2.70
2023-03-25T07:48:55.867Z,2.60
2023-03-25T07:51:24.019Z,2.53
2023-03-25T07:53:52.145Z,2.60
2023-03-25T07:56:20.460Z,2.47
2023-03-25T07:58:49.951Z,2.50
2023-03-25T08:01:18.082Z,2.50
2023-03-25T08:03:46.224Z,2.20
2023-03-25T08:06:14.404Z,2.50
2023-03-25T08:08:42.704Z,2.37
2023-03-25T08:11:11.297Z,2.13
2023-03-25T08:13:39.536Z,2.60
2023-03-25T08:16:13.453Z,2.57
2023-03-25T08:18:45.331Z,2.57
2023-03-25T08:21:14.322Z,2.67
2023-03-25T08:23:44.520Z,2.83
2023-03-25T08:26:12.765Z,2.93
2023-03-25T08:28:40.978Z,2.90
2023-03-25T08:31:09.506Z,2.80
2023-03-25T08:33:41.191Z,2.77
2023-03-25T08:36:13.996Z,2.50
2023-03-25T08:38:42.475Z,2.63
2023-03-25T08:41:10.553Z,3.03
2023-03-25T08:43:38.701Z,2.73
2023-03-25T08:46:06.915Z,3.20
2023-03-25T08:48:35.079Z,2.80
2023-03-25T08:51:06.090Z,3.13
2023-03-25T08:53:34.506Z,2.73
2023-03-25T08:56:03.278Z,2.90
2023-03-25T08:58:31.478Z,3.65
2023-03-25T09:00:59.583Z,2.77
2023-03-25T09:03:28.114Z,3.07
2023-03-25T09:05:56.309Z,2.70
2023-03-25T09:08:25.882Z,2.60
2023-03-25T09:10:56.274Z,3.20
2023-03-25T09:13:24.373Z,2.90
2023-03-25T09:15:52.770Z,2.90
2023-03-25T09:18:21.143Z,3.00
2023-03-25T09:20:49.417Z,3.23
2023-03-25T09:23:17.685Z,2.53
2023-03-25T09:25:47.233Z,2.83
2023-03-25T09:28:15.371Z,3.00
2023-03-25T09:30:43.457Z,2.80
2023-03-25T09:33:12.191Z,2.87
2023-03-25T09:35:41.286Z,2.70
2023-03-25T09:38:09.521Z,2.60
2023-03-25T09:40:38.954Z,2.83
2023-03-25T09:43:32.873Z,2.60
2023-03-25T09:46:01.752Z,2.70
2023-03-25T09:48:35.228Z,2.50
2023-03-25T09:51:06.118Z,2.37
2023-03-25T09:53:39.244Z,2.57
2023-03-25T09:56:12.390Z,2.30
2023-03-25T09:58:45.559Z,2.60
2023-03-25T10:01:27.203Z,2.97
2023-03-25T10:04:10.474Z,3.03
2023-03-25T10:06:44.512Z,2.70
2023-03-25T10:09:31.328Z,2.30
2023-03-25T10:12:06.782Z,2.67
2023-03-25T10:14:44.792Z,3.00
2023-03-25T10:17:22.806Z,3.60
2023-03-25T10:19:59.195Z,3.67
2023-03-25T10:22:31.033Z,3.78
2023-03-25T10:25:01.896Z,3.67
2023-03-25T10:27:35.632Z,3.30
2023-03-25T10:30:14.144Z,3.55
2023-03-25T10:32:44.993Z,3.70
2023-03-25T10:35:17.560Z,3.53
2023-03-25T10:37:47.723Z,3.45
2023-03-25T10:40:21.905Z,3.80
2023-03-25T10:43:00.920Z,3.67
2023-03-25T10:45:30.381Z,3.60
2023-03-25T10:48:07.640Z,3.25
2023-03-25T10:50:35.728Z,3.95
2023-03-25T10:53:22.263Z,3.10
2023-03-25T10:55:53.673Z,3.00
2023-03-25T10:58:21.763Z,3.40
2023-03-25T11:00:51.071Z,3.25
2023-03-25T11:03:22.137Z,3.70
2023-03-25T11:05:50.440Z,3.60
2023-03-25T11:08:24.416Z,2.92
2023-03-25T11:10:57.102Z,3.25
2023-03-25T11:13:26.863Z,3.10
2023-03-25T11:15:59.591Z,2.55
2023-03-25T11:18:31.004Z,3.38
2023-03-25T11:21:03.642Z,2.95
2023-03-25T11:23:34.558Z,2.38
2023-03-25T11:26:07.634Z,3.03
2023-03-25T11:28:41.833Z,3.33
2023-03-25T11:31:22.213Z,3.00
2023-03-25T11:34:06.759Z,3.00
2023-03-25T11:36:37.687Z,3.38
2023-03-25T11:39:17.137Z,3.30
2023-03-25T11:41:46.992Z,3.17
2023-03-25T11:44:24.248Z,3.00
2023-03-25T11:46:57.418Z,3.30
2023-03-25T11:49:27.040Z,3.15
2023-03-25T11:52:01.077Z,3.23
2023-03-25T11:54:29.604Z,3.05
2023-03-25T11:56:57.984Z,2.85
2023-03-25T11:59:27.925Z,2.35
2023-03-25T12:02:04.615Z,2.35
2023-03-25T12:04:32.544Z,1.90
2023-03-25T12:07:08.422Z,1.95
2023-03-25T12:09:36.863Z,2.20
2023-03-25T12:12:27.589Z,2.08
2023-03-25T12:15:06.771Z,2.30
2023-03-25T12:17:51.752Z,2.53
2023-03-25T12:20:28.070Z,2.47
2023-03-25T12:23:05.007Z,2.72
2023-03-25T12:25:40.303Z,2.50
2023-03-25T12:28:39.168Z,2.70
2023-03-25T12:31:13.505Z,2.93
2023-03-25T12:33:58.031Z,2.03
2023-03-25T12:36:40.201Z,1.83
2023-03-25T12:39:35.713Z,2.13
2023-03-25T12:42:25.935Z,1.20
2023-03-25T12:45:07.374Z,1.90
2023-03-25T12:47:39.065Z,1.70
2023-03-25T12:50:28.288Z,1.70
2023-03-25T12:53:01.040Z,1.50
2023-03-25T12:56:00.298Z,1.80
2023-03-25T12:58:55.825Z,1.67
2023-03-25T13:01:29.378Z,1.70
2023-03-25T13:04:21.082Z,1.90
2023-03-25T13:07:00.105Z,1.70
2023-03-25T13:09:32.880Z,1.70
2023-03-25T13:12:04.539Z,1.97
2023-03-25T13:14:37.260Z,2.40
2023-03-25T13:17:09.090Z,1.93
2023-03-25T13:19:42.572Z,1.80
2023-03-25T13:22:19.862Z,1.67
2023-03-25T13:24:52.279Z,1.57
2023-03-25T13:27:20.804Z,1.40
2023-03-25T13:29:52.839Z,1.43
2023-03-25T13:32:26.450Z,1.90
2023-03-25T13:34:58.195Z,2.53
2023-03-25T13:37:33.823Z,2.23
2023-03-25T13:40:14.885Z,2.63
2023-03-25T13:42:50.888Z,2.27
2023-03-25T13:45:20.803Z,2.70
2023-03-25T13:47:54.438Z,2.47
2023-03-25T13:50:27.888Z,2.30
2023-03-25T13:53:01.215Z,2.57
2023-03-25T13:55:35.982Z,2.60
2023-03-25T13:58:22.990Z,2.90
2023-03-25T14:01:25.428Z,2.57
2023-03-25T14:04:26.184Z,2.50
2023-03-25T14:07:23.442Z,3.03
2023-03-25T14:10:24.500Z,2.87
2023-03-25T14:12:56.387Z,2.97
2023-03-25T14:15:30.006Z,3.30
2023-03-25T14:17:58.505Z,3.23
2023-03-25T14:20:30.608Z,3.10
2023-03-25T14:23:00.301Z,3.57
2023-03-25T14:25:37.479Z,2.73
2023-03-25T14:28:06.780Z,2.73
2023-03-25T14:30:35.678Z,3.17
2023-03-25T14:33:04.544Z,2.90
2023-03-25T14:35:59.467Z,3.13
2023-03-25T14:38:52.504Z,3.90
2023-03-25T14:41:57.359Z,2.70
2023-03-25T14:44:29.057Z,3.00
2023-03-25T14:47:29.800Z,2.87
2023-03-25T14:50:05.242Z,2.77
2023-03-25T14:52:38.782Z,3.33
2023-03-25T14:55:12.087Z,3.23
2023-03-25T14:57:44.240Z,2.87
2023-03-25T15:00:22.648Z,2.77
2023-03-25T15:02:53.657Z,2.93
2023-03-25T15:05:25.615Z,3.00
2023-03-25T15:07:58.993Z,2.80
2023-03-25T15:10:30.259Z,3.20
2023-03-25T15:13:04.511Z,3.03
2023-03-25T15:15:34.849Z,2.67
2023-03-25T15:18:03.689Z,3.07
2023-03-25T15:20:38.425Z,3.27
2023-03-25T15:23:33.257Z,2.60
2023-03-25T15:26:02.936Z,2.80
2023-03-25T15:28:47.379Z,3.43
2023-03-25T15:31:26.247Z,3.03
2023-03-25T15:34:10.387Z,2.33
2023-03-25T15:36:50.382Z,2.70
2023-03-25T15:39:35.659Z,3.13
2023-03-25T15:42:33.658Z,2.90
2023-03-25T15:45:37.565Z,3.00
2023-03-25T15:48:22.281Z,3.00
2023-03-25T15:51:14.616Z,2.77
2023-03-25T15:54:09.037Z,2.60
2023-03-25T15:56:41.759Z,3.27
2023-03-25T15:59:30.050Z,2.70
2023-03-25T16:02:01.293Z,2.90
2023-03-25T16:04:38.707Z,2.33
2023-03-25T16:07:08.996Z,2.10
2023-03-25T16:09:41.739Z,2.23
2023-03-25T16:12:11.008Z,2.83
2023-03-25T16:14:39.641Z,2.40
2023-03-25T16:17:09.316Z,2.03
2023-03-25T16:19:42.174Z,2.40
2023-03-25T16:22:18.029Z,2.23
2023-03-25T16:24:48.373Z,2.27
2023-03-25T16:27:23.593Z,2.60
2023-03-25T16:29:53.739Z,2.37
2023-03-25T16:32:23.986Z,1.93
2023-03-25T16:34:54.135Z,2.20
2023-03-25T16:37:25.332Z,2.33
2023-03-25T16:39:54.457Z,2.50
2023-03-25T16:42:27.874Z,2.60
2023-03-25T16:44:56.305Z,2.50
2023-03-25T16:47:24.594Z,2.70
2023-03-25T16:49:56.657Z,2.60
2023-03-25T16:52:27.416Z,2.37
2023-03-25T16:55:15.342Z,3.00
2023-03-25T16:57:43.323Z,2.67
2023-03-25T17:00:20.383Z,2.63
2023-03-25T17:02:49.940Z,2.47
2023-03-25T17:05:22.421Z,2.77
2023-03-25T17:07:57.374Z,2.50
2023-03-25T17:10:27.963Z,2.43
2023-03-25T17:12:59.035Z,2.80
2023-03-25T17:15:28.250Z,3.13
2023-03-25T17:18:01.234Z,2.47
2023-03-25T17:20:35.917Z,2.87
2023-03-25T17:23:08.377Z,2.70
2023-03-25T17:25:37.881Z,3.10
2023-03-25T17:28:19.796Z,2.60
2023-03-25T17:30:47.829Z,2.90
2023-03-25T17:33:20.352Z,3.47
2023-03-25T17:35:55.430Z,3.30
2023-03-25T17:38:27.721Z,3.20
2023-03-25T17:41:00.827Z,2.80
2023-03-25T17:43:32.028Z,3.43
2023-03-25T17:46:01.518Z,3.00
2023-03-25T17:48:29.504Z,3.57
2023-03-25T17:51:00.256Z,2.70
2023-03-25T17:53:29.115Z,3.43
2023-03-25T17:55:59.100Z,3.20
2023-03-25T17:58:27.230Z,3.20
2023-03-25T18:00:55.178Z,3.13
2023-03-25T18:03:25.262Z,3.27
2023-03-25T18:05:54.379Z,3.00
2023-03-25T18:08:25.553Z,3.23
2023-03-25T18:10:54.692Z,2.77
2023-03-25T18:13:24.049Z,3.80
2023-03-25T18:15:52.727Z,3.60
2023-03-25T18:18:24.050Z,3.92
2023-03-25T18:20:53.260Z,3.60
2023-03-25T18:23:23.148Z,3.60
2023-03-25T18:25:51.196Z,3.60
2023-03-25T18:28:19.097Z,3.70
2023-03-25T18:30:50.921Z,3.80
2023-03-25T18:33:37.974Z,3.88
2023-03-25T18:36:06.756Z,3.92
2023-03-25T18:38:36.141Z,4.35
2023-03-25T18:41:04.920Z,4.00
2023-03-25T18:43:32.845Z,4.07
2023-03-25T18:46:00.886Z,4.15
2023-03-25T18:48:28.883Z,3.90
2023-03-25T18:50:58.167Z,4.00
2023-03-25T18:53:28.346Z,4.22
2023-03-25T18:56:00.789Z,4.50
2023-03-25T18:58:30.843Z,4.77
2023-03-25T19:01:00.227Z,4.97
2023-03-25T19:03:31.781Z,4.45
2023-03-25T19:06:01.224Z,4.10
2023-03-25T19:08:29.588Z,4.13
2023-03-25T19:11:08.167Z,4.13
2023-03-25T19:13:44.799Z,3.97
2023-03-25T19:16:12.757Z,3.58
2023-03-25T19:18:40.782Z,3.72
2023-03-25T19:21:08.764Z,3.42
2023-03-25T19:23:36.749Z,3.63
2023-03-25T19:26:06.609Z,4.00
2023-03-25T19:28:34.471Z,3.95
2023-03-25T19:31:03.250Z,3.95
2023-03-25T19:33:32.024Z,4.35
2023-03-25T19:36:03.692Z,4.53
2023-03-25T19:38:32.868Z,3.90
2023-03-25T19:41:07.941Z,4.35
2023-03-25T19:43:36.381Z,4.72
2023-03-25T19:46:05.314Z,4.70
2023-03-25T19:48:33.564Z,4.50
2023-03-25T19:51:01.525Z,4.50
2023-03-25T19:53:30.002Z,4.82
2023-03-25T19:56:02.027Z,4.43
2023-03-25T19:58:31.300Z,4.93
2023-03-25T20:00:59.219Z,4.50
2023-03-25T20:03:31.158Z,4.97
2023-03-25T20:06:01.496Z,4.80
2023-03-25T20:08:30.289Z,4.47
2023-03-25T20:10:58.321Z,4.80
2023-03-25T20:13:26.526Z,4.83
2023-03-25T20:15:56.117Z,4.60
2023-03-25T20:18:24.177Z,5.22
2023-03-25T20:20:52.047Z,4.88
2023-03-25T20:23:20.223Z,5.65
2023-03-25T20:25:48.145Z,5.00
2023-03-25T20:28:18.334Z,5.35
2023-03-25T20:30:46.397Z,4.68
2023-03-25T20:33:15.727Z,5.38
2023-03-25T20:35:44.314Z,5.30
2023-03-25T20:38:14.074Z,4.78
2023-03-25T20:40:45.008Z,5.30
2023-03-25T20:43:14.328Z,5.25
2023-03-25T20:45:43.475Z,5.70
2023-03-25T20:48:11.530Z,5.50
2023-03-25T20:50:40.822Z,6.63
2023-03-25T20:53:08.713Z,5.60
2023-03-25T20:55:37.146Z,3.33
2023-03-25T20:58:05.728Z,1.60
2023-03-25T21:00:34.194Z,1.50
2023-03-25T21:03:03.084Z,1.30
2023-03-25T21:05:31.274Z,1.40
2023-03-25T21:08:00.524Z,1.15
2023-03-25T21:10:28.491Z,1.00
2023-03-25T21:12:56.480Z,1.33
2023-03-25T21:15:24.407Z,1.17
2023-03-25T21:17:52.291Z,1.58
2023-03-25T21:20:23.724Z,1.40
2023-03-25T21:22:52.819Z,1.50
2023-03-25T21:25:22.061Z,1.80
2023-03-25T21:27:50.039Z,2.03
2023-03-25T21:30:18.114Z,2.20
2023-03-25T21:32:45.995Z,2.60
2023-03-25T21:35:13.919Z,2.47
2023-03-25T21:37:41.792Z,3.53
2023-03-25T21:40:12.065Z,5.38
2023-03-25T21:42:42.241Z,5.68
2023-03-25T21:45:11.956Z,5.67
2023-03-25T21:47:41.304Z,6.38
2023-03-25T21:50:11.819Z,5.85
2023-03-25T21:52:43.349Z,6.35
2023-03-25T21:55:12.554Z,6.28
2023-03-25T21:57:44.491Z,6.00
2023-03-25T22:00:16.791Z,6.65
2023-03-25T22:02:46.462Z,6.28
2023-03-25T22:05:16.084Z,6.07
2023-03-25T22:07:44.062Z,6.53
2023-03-25T22:10:12.739Z,6.50
2023-03-25T22:12:42.076Z,6.47
2023-03-25T22:15:11.618Z,6.65
2023-03-25T22:17:39.596Z,7.00
2023-03-25T22:20:10.132Z,6.45
2023-03-25T22:22:38.211Z,7.03
2023-03-25T22:25:07.291Z,6.28
2023-03-25T22:27:35.896Z,6.33
2023-03-25T22:30:06.310Z,6.07
2023-03-25T22:32:35.320Z,6.90
2023-03-25T22:35:03.865Z,6.50
2023-03-25T22:37:31.997Z,6.37
2023-03-25T22:39:59.932Z,6.35
2023-03-25T22:42:29.475Z,6.70
2023-03-25T22:44:57.350Z,6.63
2023-03-25T22:47:26.621Z,6.38
2023-03-25T22:49:54.556Z,6.63
2023-03-25T22:52:22.422Z,6.35
2023-03-25T22:54:50.381Z,6.30
2023-03-25T22:57:19.142Z,6.57
2023-03-25T22:59:47.055Z,7.03
2023-03-25T23:02:16.576Z,6.20
2023-03-25T23:04:46.201Z,6.05
2023-03-25T23:07:14.734Z,5.72
2023-03-25T23:09:44.010Z,6.25
2023-03-25T23:12:13.797Z,6.07
2023-03-25T23:14:44.538Z,5.78
2023-03-25T23:17:12.595Z,5.85
2023-03-25T23:19:41.324Z,6.18
2023-03-25T23:22:10.702Z,6.00
2023-03-25T23:24:39.532Z,5.57
2023-03-25T23:27:09.360Z,5.90
2023-03-25T23:29:39.064Z,6.25
2023-03-25T23:32:08.231Z,6.50
2023-03-25T23:34:38.240Z,6.28
2023-03-25T23:37:09.128Z,6.00
2023-03-25T23:39:40.210Z,6.00
2023-03-25T23:42:08.118Z,6.00
2023-03-25T23:44:36.216Z,6.30
2023-03-25T23:47:04.681Z,5.97
2023-03-25T23:49:33.922Z,6.07
2023-03-25T23:52:02.213Z,5.50
2023-03-25T23:54:30.076Z,6.03
2023-03-25T23:56:59.551Z,6.20
2023-03-25T23:59:27.573Z,6.30
